ΕΜΥ, Εθνική Μετεωρολογική Υπηρεσία - Δελτία Καιρού, Προγνώσεις

ΑΕΡΟΝΑΥΤΙΛΙΑ

GREEK AIRPORTS CODES

TAF LGAL 220500Z 2206/2215 05010KT 9999 FEW025 BECMG 2212/2214 21010KT=

EUROPEAN AIRPORTS CODES

LFPO 220730Z VRB03KT CAVOK 23/14 Q1024 NOSIG=